createdAt,value
2023-03-02T00:01:12.472Z,82.42
2023-03-02T00:03:42.701Z,82.70
2023-03-02T00:06:11.180Z,82.87
2023-03-02T00:08:39.805Z,82.49
2023-03-02T00:11:07.957Z,82.06
2023-03-02T00:13:38.071Z,82.66
2023-03-02T00:16:06.797Z,83.07
2023-03-02T00:18:34.386Z,83.18
2023-03-02T00:21:03.634Z,82.53
2023-03-02T00:23:31.228Z,83.26
2023-03-02T00:25:59.332Z,83.12
2023-03-02T00:28:27.295Z,83.18
2023-03-02T00:30:55.630Z,82.71
2023-03-02T00:33:23.803Z,82.77
2023-03-02T00:35:51.775Z,82.92
2023-03-02T00:38:20.687Z,83.14
2023-03-02T00:40:49.841Z,82.92
2023-03-02T00:43:18.622Z,83.12
2023-03-02T00:45:46.717Z,83.83
2023-03-02T00:48:14.261Z,83.67
2023-03-02T00:50:42.126Z,84.14
2023-03-02T00:53:09.949Z,83.03
2023-03-02T00:55:39.233Z,82.98
2023-03-02T00:58:07.108Z,84.01
2023-03-02T01:00:35.591Z,84.19
2023-03-02T01:03:06.837Z,82.94
2023-03-02T01:05:37.653Z,84.19
2023-03-02T01:08:05.726Z,83.79
2023-03-02T01:10:33.868Z,84.19
2023-03-02T01:13:03.330Z,83.34
2023-03-02T01:15:30.917Z,83.90
2023-03-02T01:17:59.978Z,83.36
2023-03-02T01:20:27.729Z,84.33
2023-03-02T01:22:56.456Z,83.23
2023-03-02T01:25:24.468Z,83.83
2023-03-02T01:27:52.323Z,84.10
2023-03-02T01:30:21.402Z,83.33
2023-03-02T01:32:49.483Z,84.12
2023-03-02T01:35:17.330Z,84.03
2023-03-02T01:37:45.602Z,84.20
2023-03-02T01:40:15.180Z,83.35
2023-03-02T01:42:48.239Z,83.75
2023-03-02T01:45:53.363Z,83.03
2023-03-02T01:48:33.192Z,83.90
2023-03-02T01:51:01.685Z,83.60
2023-03-02T01:53:32.896Z,83.24
2023-03-02T01:56:03.504Z,83.32
2023-03-02T01:58:34.942Z,83.59
2023-03-02T02:01:05.133Z,83.75
2023-03-02T02:03:33.221Z,83.41
2023-03-02T02:06:10.238Z,83.52
2023-03-02T02:08:40.097Z,83.57
2023-03-02T02:11:07.858Z,83.53
2023-03-02T02:13:36.053Z,83.41
2023-03-02T02:16:05.819Z,83.55
2023-03-02T02:18:35.015Z,83.88
2023-03-02T02:21:03.114Z,83.67
2023-03-02T02:23:37.096Z,83.08
2023-03-02T02:26:13.783Z,83.57
2023-03-02T02:28:48.540Z,83.10
2023-03-02T02:31:22.397Z,83.37
2023-03-02T02:33:54.564Z,83.40
2023-03-02T02:36:26.617Z,83.01
2023-03-02T02:38:57.597Z,83.20
2023-03-02T02:41:30.368Z,82.53
2023-03-02T02:43:58.522Z,82.63
2023-03-02T02:46:27.590Z,83.20
2023-03-02T02:48:57.502Z,82.93
2023-03-02T02:51:29.737Z,82.96
2023-03-02T02:54:00.378Z,83.40
2023-03-02T02:56:39.633Z,83.76
2023-03-02T02:59:17.379Z,82.92
2023-03-02T03:01:47.021Z,83.18
2023-03-02T03:04:18.991Z,84.11
2023-03-02T03:06:52.619Z,83.53
2023-03-02T03:09:21.119Z,83.18
2023-03-02T03:11:53.608Z,83.14
2023-03-02T03:14:26.732Z,83.41
2023-03-02T03:16:55.325Z,82.94
2023-03-02T03:19:25.626Z,83.05
2023-03-02T03:21:56.635Z,82.97
2023-03-02T03:24:26.883Z,83.01
2023-03-02T03:26:56.845Z,82.90
2023-03-02T03:29:26.944Z,83.33
2023-03-02T03:32:00.539Z,83.08
2023-03-02T03:34:31.397Z,82.97
2023-03-02T03:37:01.753Z,82.87
2023-03-02T03:39:32.647Z,83.31
2023-03-02T03:42:02.048Z,82.35
2023-03-02T03:44:30.570Z,82.67
2023-03-02T03:46:58.720Z,82.43
2023-03-02T03:49:27.798Z,82.62
2023-03-02T03:51:56.260Z,82.37
2023-03-02T03:54:24.679Z,82.91
2023-03-02T03:56:52.306Z,82.93
2023-03-02T03:59:23.851Z,82.25
2023-03-02T04:01:57.552Z,82.96
2023-03-02T04:04:30.794Z,82.73
2023-03-02T04:06:59.329Z,82.70
2023-03-02T04:09:27.886Z,82.19
2023-03-02T04:11:57.115Z,82.25
2023-03-02T04:14:27.445Z,81.48
2023-03-02T04:16:57.251Z,81.71
2023-03-02T04:19:26.539Z,81.53
2023-03-02T04:21:58.480Z,81.64
2023-03-02T04:24:27.849Z,81.52
2023-03-02T04:26:57.672Z,81.76
2023-03-02T04:29:27.608Z,82.16
2023-03-02T04:31:55.455Z,82.29
2023-03-02T04:34:26.775Z,82.39
2023-03-02T04:36:55.909Z,82.19
2023-03-02T04:39:24.987Z,81.80
2023-03-02T04:41:54.286Z,81.73
2023-03-02T04:44:21.949Z,81.75
2023-03-02T04:46:51.860Z,82.34
2023-03-02T04:49:21.608Z,82.05
2023-03-02T04:51:50.437Z,81.15
2023-03-02T04:54:20.562Z,81.66
2023-03-02T04:56:49.350Z,82.15
2023-03-02T04:59:17.570Z,81.61
2023-03-02T05:01:45.469Z,81.51
2023-03-02T05:04:14.964Z,81.93
2023-03-02T05:06:42.962Z,81.86
2023-03-02T05:09:10.662Z,82.01
2023-03-02T05:11:38.706Z,81.78
2023-03-02T05:14:08.849Z,82.23
2023-03-02T05:16:39.507Z,81.76
2023-03-02T05:19:09.358Z,81.95
2023-03-02T05:21:38.377Z,82.07
2023-03-02T05:24:06.694Z,81.50
2023-03-02T05:26:34.653Z,81.68
2023-03-02T05:29:02.410Z,81.88
2023-03-02T05:31:34.853Z,82.25
2023-03-02T05:34:02.791Z,82.22
2023-03-02T05:36:31.127Z,82.46
2023-03-02T05:39:00.140Z,82.04
2023-03-02T05:41:28.148Z,81.90
2023-03-02T05:43:55.776Z,82.58
2023-03-02T05:46:23.976Z,82.00
2023-03-02T05:48:51.810Z,81.97
2023-03-02T05:51:20.050Z,81.83
2023-03-02T05:53:48.199Z,82.39
2023-03-02T05:56:17.732Z,82.12
2023-03-02T05:58:45.275Z,82.49
2023-03-02T06:01:15.398Z,82.42
2023-03-02T06:03:43.359Z,81.99
2023-03-02T06:06:13.842Z,81.95
2023-03-02T06:08:41.950Z,82.25
2023-03-02T06:11:11.130Z,81.84
2023-03-02T06:13:40.933Z,82.26
2023-03-02T06:16:09.399Z,81.64
2023-03-02T06:18:40.940Z,81.71
2023-03-02T06:21:09.410Z,81.93
2023-03-02T06:23:37.009Z,81.89
2023-03-02T06:26:10.973Z,82.21
2023-03-02T06:28:51.994Z,81.79
2023-03-02T06:31:21.076Z,81.46
2023-03-02T06:33:49.937Z,81.96
2023-03-02T06:36:18.303Z,81.56
2023-03-02T06:38:45.962Z,81.57
2023-03-02T06:41:13.969Z,81.22
2023-03-02T06:43:43.209Z,82.00
2023-03-02T06:46:12.711Z,81.67
2023-03-02T06:48:40.319Z,82.04
2023-03-02T06:51:08.612Z,81.69
2023-03-02T06:53:36.317Z,81.90
2023-03-02T06:56:04.651Z,82.11
2023-03-02T06:58:32.825Z,81.76
2023-03-02T07:01:01.778Z,81.66
2023-03-02T07:03:30.229Z,81.68
2023-03-02T07:05:57.846Z,81.90
2023-03-02T07:08:25.782Z,81.85
2023-03-02T07:10:53.336Z,81.07
2023-03-02T07:13:21.241Z,80.89
2023-03-02T07:15:48.935Z,80.92
2023-03-02T07:18:18.905Z,80.40
2023-03-02T07:20:46.458Z,79.59
2023-03-02T07:23:14.582Z,79.88
2023-03-02T07:25:42.611Z,79.94
2023-03-02T07:28:10.537Z,79.91
2023-03-02T07:30:38.126Z,79.72
2023-03-02T07:33:05.813Z,79.41
2023-03-02T07:35:34.766Z,79.42
2023-03-02T07:38:03.371Z,79.26
2023-03-02T07:40:30.894Z,79.24
2023-03-02T07:42:58.623Z,79.07
2023-03-02T07:45:26.609Z,78.84
2023-03-02T07:47:54.512Z,78.79
2023-03-02T07:50:22.073Z,79.21
2023-03-02T07:52:51.307Z,78.57
2023-03-02T07:55:18.905Z,78.50
2023-03-02T07:57:46.513Z,78.50
2023-03-02T08:00:15.415Z,78.02
2023-03-02T08:02:43.826Z,78.05
2023-03-02T08:05:12.393Z,77.87
2023-03-02T08:07:41.135Z,76.80
2023-03-02T08:10:12.116Z,76.52
2023-03-02T08:12:39.839Z,76.82
2023-03-02T08:15:09.570Z,76.37
2023-03-02T08:17:37.432Z,76.48
2023-03-02T08:20:06.306Z,76.25
2023-03-02T08:22:34.185Z,76.27
2023-03-02T08:25:01.772Z,75.61
2023-03-02T08:27:30.862Z,74.88
2023-03-02T08:29:58.406Z,75.50
2023-03-02T08:32:26.300Z,75.67
2023-03-02T08:34:54.802Z,74.65
2023-03-02T08:37:22.367Z,74.91
2023-03-02T08:39:50.551Z,74.29
2023-03-02T08:42:18.176Z,74.62
2023-03-02T08:44:47.479Z,74.85
2023-03-02T08:47:15.062Z,74.10
2023-03-02T08:49:42.922Z,73.69
2023-03-02T08:52:10.564Z,74.03
2023-03-02T08:54:40.589Z,74.06
2023-03-02T08:57:11.742Z,74.25
2023-03-02T08:59:39.786Z,74.34
2023-03-02T09:02:11.248Z,74.23
2023-03-02T09:04:39.356Z,74.06
2023-03-02T09:07:07.010Z,72.66
2023-03-02T09:09:35.318Z,72.53
2023-03-02T09:12:03.367Z,72.46
2023-03-02T09:14:31.273Z,72.26
2023-03-02T09:16:58.918Z,71.89
2023-03-02T09:19:27.888Z,71.90
2023-03-02T09:21:55.456Z,71.09
2023-03-02T09:24:23.665Z,70.79
2023-03-02T09:26:51.236Z,70.07
2023-03-02T09:29:19.052Z,69.99
2023-03-02T09:31:46.709Z,70.10
2023-03-02T09:34:14.617Z,69.90
2023-03-02T09:36:43.512Z,70.27
2023-03-02T09:39:12.717Z,68.43
2023-03-02T09:42:08.833Z,67.71
2023-03-02T09:45:04.812Z,68.32
2023-03-02T09:47:39.155Z,68.84
2023-03-02T09:50:27.986Z,68.62
2023-03-02T09:53:16.617Z,67.46
2023-03-02T09:55:48.546Z,67.02
2023-03-02T09:58:20.270Z,66.99
2023-03-02T10:00:49.232Z,66.63
2023-03-02T10:03:19.911Z,66.55
2023-03-02T10:05:50.378Z,66.34
2023-03-02T10:08:23.126Z,67.53
2023-03-02T10:10:58.046Z,66.73
2023-03-02T10:13:30.092Z,66.96
2023-03-02T10:16:11.483Z,67.46
2023-03-02T10:18:44.760Z,66.57
2023-03-02T10:21:21.475Z,67.30
2023-03-02T10:23:57.644Z,67.40
2023-03-02T10:26:38.416Z,67.73
2023-03-02T10:29:24.207Z,67.35
2023-03-02T10:32:00.237Z,67.74
2023-03-02T10:34:31.508Z,67.44
2023-03-02T10:36:59.574Z,67.92
2023-03-02T10:39:29.175Z,68.42
2023-03-02T10:42:03.891Z,68.63
2023-03-02T10:44:37.583Z,68.47
2023-03-02T10:47:05.709Z,68.48
2023-03-02T10:49:35.087Z,67.93
2023-03-02T10:52:05.492Z,68.48
2023-03-02T10:54:37.092Z,68.95
2023-03-02T10:57:19.879Z,69.49
2023-03-02T10:59:49.111Z,68.26
2023-03-02T11:02:23.100Z,64.97
2023-03-02T11:04:57.453Z,62.25
2023-03-02T11:07:27.581Z,58.26
2023-03-02T11:10:05.715Z,56.33
2023-03-02T11:12:36.371Z,54.99
2023-03-02T11:15:20.506Z,54.51
2023-03-02T11:17:51.158Z,54.72
2023-03-02T11:20:26.817Z,53.13
2023-03-02T11:23:02.542Z,53.11
2023-03-02T11:25:36.850Z,52.76
2023-03-02T11:28:11.950Z,52.58
2023-03-02T11:30:46.797Z,52.91
2023-03-02T11:33:21.436Z,51.96
2023-03-02T11:35:54.786Z,52.25
2023-03-02T11:38:26.572Z,52.35
2023-03-02T11:40:59.785Z,52.00
2023-03-02T11:43:27.510Z,50.92
2023-03-02T11:45:59.644Z,53.20
2023-03-02T11:48:32.544Z,52.43
2023-03-02T11:51:04.206Z,51.73
2023-03-02T11:53:40.223Z,53.40
2023-03-02T11:56:09.923Z,52.14
2023-03-02T11:58:39.440Z,52.40
2023-03-02T12:01:13.356Z,51.08
2023-03-02T12:03:42.553Z,51.08
2023-03-02T12:06:28.045Z,50.66
2023-03-02T12:09:07.864Z,49.88
2023-03-02T12:11:41.338Z,49.19
2023-03-02T12:14:28.531Z,50.28
2023-03-02T12:17:07.345Z,51.24
2023-03-02T12:19:42.551Z,51.70
2023-03-02T12:22:13.825Z,51.43
2023-03-02T12:24:44.463Z,51.16
2023-03-02T12:27:27.513Z,51.94
2023-03-02T12:30:09.257Z,52.47
2023-03-02T12:32:38.389Z,52.73
2023-03-02T12:35:13.904Z,52.94
2023-03-02T12:37:48.333Z,52.60
2023-03-02T12:40:32.672Z,52.34
2023-03-02T12:43:27.617Z,51.86
2023-03-02T12:46:13.713Z,50.93
2023-03-02T12:48:45.888Z,50.12
2023-03-02T12:51:19.400Z,49.99
2023-03-02T12:53:47.157Z,50.31
2023-03-02T12:56:23.328Z,49.21
2023-03-02T12:58:55.250Z,51.07
2023-03-02T13:01:27.059Z,53.17
2023-03-02T13:03:55.809Z,53.29
2023-03-02T13:06:26.954Z,53.60
2023-03-02T13:08:57.875Z,54.02
2023-03-02T13:11:31.380Z,53.94
2023-03-02T13:14:03.620Z,54.20
2023-03-02T13:16:34.779Z,54.03
2023-03-02T13:19:04.061Z,55.20
2023-03-02T13:21:34.834Z,56.17
2023-03-02T13:24:02.853Z,57.85
2023-03-02T13:26:33.341Z,58.61
2023-03-02T13:29:05.480Z,58.72
2023-03-02T13:31:34.361Z,60.29
2023-03-02T13:34:02.780Z,61.31
2023-03-02T13:36:36.268Z,60.27
2023-03-02T13:39:07.268Z,61.82
2023-03-02T13:41:37.145Z,62.11
2023-03-02T13:44:20.747Z,63.11
2023-03-02T13:46:48.805Z,62.38
2023-03-02T13:49:27.983Z,62.63
2023-03-02T13:52:02.055Z,62.67
2023-03-02T13:54:32.399Z,63.45
2023-03-02T13:57:03.522Z,63.72
2023-03-02T13:59:33.029Z,63.20
2023-03-02T14:02:01.163Z,63.47
2023-03-02T14:04:29.267Z,63.72
2023-03-02T14:06:57.360Z,65.78
2023-03-02T14:09:27.578Z,65.31
2023-03-02T14:11:56.957Z,64.10
2023-03-02T14:14:28.011Z,64.17
2023-03-02T14:16:57.350Z,63.88
2023-03-02T14:19:25.139Z,63.41
2023-03-02T14:21:52.772Z,62.43
2023-03-02T14:24:21.020Z,64.79
2023-03-02T14:26:49.806Z,62.86
2023-03-02T14:29:23.392Z,63.11
2023-03-02T14:31:51.070Z,63.28
2023-03-02T14:34:20.447Z,64.27
2023-03-02T14:36:50.880Z,63.73
2023-03-02T14:39:23.249Z,65.73
2023-03-02T14:41:54.278Z,66.30
2023-03-02T14:44:23.511Z,64.74
2023-03-02T14:46:51.331Z,63.31
2023-03-02T14:49:20.322Z,63.23
2023-03-02T14:51:55.205Z,64.07
2023-03-02T14:54:23.268Z,62.73
2023-03-02T14:56:50.874Z,62.84
2023-03-02T14:59:18.702Z,64.42
2023-03-02T15:01:46.395Z,64.94
2023-03-02T15:04:14.335Z,64.96
2023-03-02T15:06:44.321Z,66.14
2023-03-02T15:09:12.377Z,65.50
2023-03-02T15:11:40.014Z,65.90
2023-03-02T15:14:08.370Z,66.37
2023-03-02T15:16:36.679Z,66.11
2023-03-02T15:19:04.527Z,67.52
2023-03-02T15:21:32.891Z,68.37
2023-03-02T15:24:02.248Z,67.15
2023-03-02T15:26:29.824Z,68.38
2023-03-02T15:28:57.875Z,67.83
2023-03-02T15:31:27.538Z,66.28
2023-03-02T15:33:56.456Z,68.72
2023-03-02T15:36:24.139Z,68.04
2023-03-02T15:38:52.064Z,68.66
2023-03-02T15:41:21.577Z,68.28
2023-03-02T15:43:51.107Z,66.19
2023-03-02T15:46:18.801Z,66.00
2023-03-02T15:48:46.614Z,65.77
2023-03-02T15:51:14.428Z,66.32
2023-03-02T15:53:42.491Z,67.44
2023-03-02T15:56:13.716Z,66.01
2023-03-02T15:58:46.544Z,66.60
2023-03-02T16:01:15.756Z,66.61
2023-03-02T16:03:45.295Z,66.21
2023-03-02T16:06:13.399Z,67.04
2023-03-02T16:08:41.776Z,66.89
2023-03-02T16:11:11.278Z,68.12
2023-03-02T16:13:39.301Z,69.01
2023-03-02T16:16:10.702Z,69.38
2023-03-02T16:18:38.308Z,68.40
2023-03-02T16:21:07.174Z,69.31
2023-03-02T16:23:34.766Z,70.38
2023-03-02T16:26:08.769Z,70.53
2023-03-02T16:28:36.836Z,71.41
2023-03-02T16:31:06.528Z,71.88
2023-03-02T16:33:35.748Z,72.77
2023-03-02T16:36:04.580Z,73.74
2023-03-02T16:38:32.238Z,74.29
2023-03-02T16:41:00.098Z,74.69
2023-03-02T16:43:29.104Z,75.23
2023-03-02T16:45:57.037Z,75.66
2023-03-02T16:48:24.625Z,76.25
2023-03-02T16:50:57.215Z,76.72
2023-03-02T16:53:25.003Z,77.27
2023-03-02T16:55:52.659Z,77.69
2023-03-02T16:58:20.834Z,77.88
2023-03-02T17:00:49.247Z,78.33
2023-03-02T17:03:17.278Z,78.74
2023-03-02T17:05:45.414Z,78.82
2023-03-02T17:08:16.294Z,79.03
2023-03-02T17:10:45.233Z,79.83
2023-03-02T17:13:15.453Z,80.06
2023-03-02T17:15:43.938Z,80.45
2023-03-02T17:18:11.638Z,80.96
2023-03-02T17:20:39.712Z,80.81
2023-03-02T17:23:07.365Z,80.83
2023-03-02T17:25:36.450Z,80.65
2023-03-02T17:28:04.114Z,80.99
2023-03-02T17:30:31.925Z,81.05
2023-03-02T17:32:59.516Z,81.08
2023-03-02T17:35:27.136Z,80.70
2023-03-02T17:37:54.740Z,81.27
2023-03-02T17:40:23.528Z,81.16
2023-03-02T17:42:55.316Z,81.21
2023-03-02T17:45:26.942Z,80.70
2023-03-02T17:47:56.606Z,81.08
2023-03-02T17:50:25.796Z,81.74
2023-03-02T17:52:54.056Z,82.01
2023-03-02T17:55:22.029Z,81.80
2023-03-02T17:57:49.620Z,82.57
2023-03-02T18:00:22.474Z,82.74
2023-03-02T18:02:50.932Z,83.13
2023-03-02T18:05:19.671Z,82.40
2023-03-02T18:07:47.240Z,82.44
2023-03-02T18:10:15.819Z,83.00
2023-03-02T18:12:43.595Z,82.63
2023-03-02T18:15:13.016Z,82.69
2023-03-02T18:17:41.969Z,83.37
2023-03-02T18:20:10.977Z,82.97
2023-03-02T18:22:39.294Z,82.96
2023-03-02T18:25:07.780Z,84.05
2023-03-02T18:27:35.881Z,83.41
2023-03-02T18:30:03.886Z,83.06
2023-03-02T18:32:31.530Z,84.25
2023-03-02T18:35:00.527Z,83.24
2023-03-02T18:37:28.820Z,83.12
2023-03-02T18:39:56.797Z,84.01
2023-03-02T18:42:24.567Z,83.75
2023-03-02T18:44:52.348Z,83.56
2023-03-02T18:47:21.824Z,83.41
2023-03-02T18:49:49.690Z,83.71
2023-03-02T18:52:19.038Z,84.67
2023-03-02T18:54:49.383Z,84.80
2023-03-02T18:57:17.033Z,83.99
2023-03-02T18:59:44.609Z,84.73
2023-03-02T19:02:14.633Z,83.69
2023-03-02T19:04:42.682Z,83.13
2023-03-02T19:07:10.901Z,83.34
2023-03-02T19:09:40.038Z,83.56
2023-03-02T19:12:07.875Z,84.61
2023-03-02T19:14:35.463Z,85.86
2023-03-02T19:17:03.169Z,86.06
2023-03-02T19:19:31.101Z,86.18
2023-03-02T19:21:58.845Z,85.14
2023-03-02T19:24:26.737Z,85.24
2023-03-02T19:26:55.948Z,85.10
2023-03-02T19:29:23.710Z,85.01
2023-03-02T19:31:51.317Z,84.58
2023-03-02T19:34:18.977Z,85.48
2023-03-02T19:36:46.665Z,85.20
2023-03-02T19:39:14.564Z,86.27
2023-03-02T19:41:42.968Z,86.08
2023-03-02T19:44:12.537Z,86.52
2023-03-02T19:46:40.867Z,85.75
2023-03-02T19:49:08.660Z,85.71
2023-03-02T19:51:36.646Z,86.43
2023-03-02T19:54:05.403Z,85.96
2023-03-02T19:56:39.538Z,86.09
2023-03-02T19:59:08.082Z,84.68
2023-03-02T20:01:37.683Z,84.86
2023-03-02T20:04:05.724Z,85.17
2023-03-02T20:06:35.471Z,84.91
2023-03-02T20:09:05.753Z,85.61
2023-03-02T20:11:35.101Z,84.52
2023-03-02T20:14:02.984Z,84.20
2023-03-02T20:16:31.520Z,84.53
2023-03-02T20:19:01.911Z,85.02
2023-03-02T20:21:29.526Z,84.38
2023-03-02T20:23:57.532Z,84.37
2023-03-02T20:26:26.622Z,85.65
2023-03-02T20:28:55.858Z,85.56
2023-03-02T20:31:25.040Z,85.35
2023-03-02T20:33:54.941Z,85.75
2023-03-02T20:36:26.962Z,84.85
2023-03-02T20:38:57.494Z,86.49
2023-03-02T20:41:25.367Z,86.46
2023-03-02T20:43:53.604Z,85.37
2023-03-02T20:46:24.203Z,85.21
2023-03-02T20:48:52.912Z,85.88
2023-03-02T20:51:21.371Z,85.34
2023-03-02T20:53:50.524Z,85.55
2023-03-02T20:56:19.156Z,85.10
2023-03-02T20:58:48.301Z,85.22
2023-03-02T21:01:17.972Z,85.64
2023-03-02T21:03:46.162Z,86.03
2023-03-02T21:06:15.153Z,85.05
2023-03-02T21:08:44.133Z,86.03
2023-03-02T21:11:16.573Z,85.59
2023-03-02T21:13:47.018Z,85.54
2023-03-02T21:16:18.550Z,86.13
2023-03-02T21:18:46.339Z,86.45
2023-03-02T21:21:14.109Z,86.06
2023-03-02T21:23:42.505Z,86.04
2023-03-02T21:26:11.606Z,86.59
2023-03-02T21:28:43.943Z,86.44
2023-03-02T21:31:11.761Z,85.82
2023-03-02T21:33:40.794Z,85.16
2023-03-02T21:36:09.557Z,84.81
2023-03-02T21:38:37.707Z,84.54
2023-03-02T21:41:05.606Z,85.07
2023-03-02T21:43:34.278Z,85.70
2023-03-02T21:46:03.291Z,85.53
2023-03-02T21:48:31.458Z,85.11
2023-03-02T21:50:59.427Z,85.28
2023-03-02T21:53:27.087Z,85.98
2023-03-02T21:55:55.033Z,85.81
2023-03-02T21:58:22.935Z,85.22
2023-03-02T22:00:50.511Z,84.95
2023-03-02T22:03:19.773Z,85.57
2023-03-02T22:05:47.366Z,84.70
2023-03-02T22:08:17.675Z,85.52
2023-03-02T22:10:46.932Z,85.80
2023-03-02T22:13:18.428Z,85.85
2023-03-02T22:15:47.576Z,86.28
2023-03-02T22:18:18.510Z,86.00
2023-03-02T22:20:49.916Z,86.10
2023-03-02T22:23:20.889Z,85.16
2023-03-02T22:25:50.452Z,85.34
2023-03-02T22:28:20.906Z,85.67
2023-03-02T22:30:49.187Z,85.70
2023-03-02T22:33:20.674Z,85.79
2023-03-02T22:35:51.291Z,86.53
2023-03-02T22:38:25.262Z,86.21
2023-03-02T22:40:53.683Z,85.42
2023-03-02T22:43:25.913Z,85.59
2023-03-02T22:45:53.620Z,85.74
2023-03-02T22:48:23.403Z,86.03
2023-03-02T22:50:52.671Z,85.82
2023-03-02T22:53:29.544Z,85.13
2023-03-02T22:56:00.236Z,84.82
2023-03-02T22:58:42.821Z,84.97
2023-03-02T23:01:20.357Z,85.37
2023-03-02T23:03:49.915Z,85.40
2023-03-02T23:06:25.127Z,84.97
2023-03-02T23:08:54.810Z,85.90
2023-03-02T23:11:24.535Z,85.54
2023-03-02T23:13:53.706Z,85.63
2023-03-02T23:16:23.488Z,86.01
2023-03-02T23:18:52.540Z,85.49
2023-03-02T23:21:23.241Z,85.26
2023-03-02T23:23:51.699Z,85.53
2023-03-02T23:26:20.133Z,84.43
2023-03-02T23:28:49.432Z,84.27
2023-03-02T23:31:19.151Z,85.13
2023-03-02T23:33:47.005Z,84.85
2023-03-02T23:36:15.044Z,84.62
2023-03-02T23:38:43.972Z,84.77
2023-03-02T23:41:11.937Z,84.57
2023-03-02T23:43:39.510Z,85.26
2023-03-02T23:46:07.786Z,85.33
2023-03-02T23:48:35.671Z,85.52
2023-03-02T23:51:03.341Z,85.14
2023-03-02T23:53:30.953Z,85.13
2023-03-02T23:56:00.620Z,84.93
2023-03-02T23:58:28.236Z,84.79
